createdAt,value
2022-09-18T00:01:11.498Z,1.70
2022-09-18T00:03:40.294Z,1.52
2022-09-18T00:06:13.056Z,1.52
2022-09-18T00:08:41.376Z,1.48
2022-09-18T00:11:09.808Z,1.58
2022-09-18T00:13:38.368Z,1.50
2022-09-18T00:16:07.713Z,1.55
2022-09-18T00:18:35.058Z,1.20
2022-09-18T00:21:24.670Z,1.15
2022-09-18T00:23:54.505Z,1.30
2022-09-18T00:26:22.187Z,1.33
2022-09-18T00:28:49.151Z,1.35
2022-09-18T00:31:19.399Z,1.42
2022-09-18T00:33:47.004Z,1.35
2022-09-18T00:36:16.121Z,1.08
2022-09-18T00:38:43.942Z,1.27
2022-09-18T00:41:18.029Z,1.67
2022-09-18T00:43:45.656Z,1.23
2022-09-18T00:46:35.350Z,1.50
2022-09-18T00:49:12.584Z,1.98
2022-09-18T00:51:40.307Z,1.80
2022-09-18T00:54:11.729Z,1.92
2022-09-18T00:56:39.377Z,1.60
2022-09-18T00:59:07.583Z,1.75
2022-09-18T01:01:34.589Z,1.50
2022-09-18T01:04:01.742Z,1.42
2022-09-18T01:06:42.187Z,1.80
2022-09-18T01:09:43.166Z,1.90
2022-09-18T01:12:26.298Z,1.70
2022-09-18T01:15:06.569Z,1.73
2022-09-18T01:18:00.847Z,1.58
2022-09-18T01:21:09.448Z,1.70
2022-09-18T01:23:38.957Z,1.45
2022-09-18T01:26:30.283Z,1.60
2022-09-18T01:29:02.895Z,1.90
2022-09-18T01:31:46.170Z,1.92
2022-09-18T01:34:16.218Z,2.13
2022-09-18T01:36:49.731Z,2.15
2022-09-18T01:39:47.222Z,2.72
2022-09-18T01:42:17.377Z,1.75
2022-09-18T01:44:47.638Z,1.70
2022-09-18T01:47:18.180Z,2.00
2022-09-18T01:49:47.465Z,2.08
2022-09-18T01:52:31.202Z,1.90
2022-09-18T01:55:01.549Z,2.17
2022-09-18T01:57:39.427Z,3.13
2022-09-18T02:00:10.550Z,2.30
2022-09-18T02:02:46.273Z,2.55
2022-09-18T02:05:19.431Z,2.85
2022-09-18T02:08:15.938Z,2.38
2022-09-18T02:10:52.223Z,3.03
2022-09-18T02:13:25.052Z,2.65
2022-09-18T02:16:00.644Z,2.13
2022-09-18T02:18:33.846Z,2.33
2022-09-18T02:21:10.537Z,2.88
2022-09-18T02:23:41.172Z,2.50
2022-09-18T02:26:09.957Z,2.10
2022-09-18T02:28:39.277Z,2.10
2022-09-18T02:31:06.441Z,2.67
2022-09-18T02:33:36.344Z,2.08
2022-09-18T02:36:36.739Z,2.28
2022-09-18T02:39:34.784Z,2.05
2022-09-18T02:42:28.281Z,1.77
2022-09-18T02:44:55.211Z,2.00
2022-09-18T02:47:44.005Z,2.22
2022-09-18T02:50:23.332Z,2.35
2022-09-18T02:53:25.286Z,1.88
2022-09-18T02:55:57.828Z,2.33
2022-09-18T02:58:44.362Z,2.00
2022-09-18T03:01:14.431Z,2.20
2022-09-18T03:03:42.263Z,2.13
2022-09-18T03:06:11.286Z,1.80
2022-09-18T03:08:38.872Z,1.85
2022-09-18T03:11:06.572Z,2.05
2022-09-18T03:13:34.011Z,2.13
2022-09-18T03:16:02.983Z,1.60
2022-09-18T03:18:30.505Z,1.63
2022-09-18T03:20:59.361Z,1.75
2022-09-18T03:23:26.537Z,1.63
2022-09-18T03:26:06.609Z,2.13
2022-09-18T03:28:34.152Z,2.35
2022-09-18T03:31:01.645Z,1.52
2022-09-18T03:33:31.255Z,1.55
2022-09-18T03:35:58.247Z,1.75
2022-09-18T03:38:26.689Z,2.40
2022-09-18T03:40:54.976Z,1.80
2022-09-18T03:43:21.844Z,2.20
2022-09-18T03:45:50.021Z,1.77
2022-09-18T03:48:17.995Z,1.25
2022-09-18T03:50:45.050Z,1.27
2022-09-18T03:53:12.149Z,1.50
2022-09-18T03:56:00.025Z,1.40
2022-09-18T03:58:30.012Z,1.63
2022-09-18T04:01:02.885Z,1.83
2022-09-18T04:03:39.826Z,1.50
2022-09-18T04:06:25.823Z,1.30
2022-09-18T04:09:11.282Z,1.92
2022-09-18T04:11:44.570Z,1.52
2022-09-18T04:14:12.406Z,1.70
2022-09-18T04:16:39.579Z,1.80
2022-09-18T04:19:08.236Z,1.83
2022-09-18T04:21:35.115Z,1.92
2022-09-18T04:24:02.292Z,1.67
2022-09-18T04:26:29.944Z,1.23
2022-09-18T04:28:59.913Z,1.42
2022-09-18T04:31:26.850Z,1.52
2022-09-18T04:33:55.612Z,1.52
2022-09-18T04:36:24.508Z,1.42
2022-09-18T04:38:52.269Z,1.65
2022-09-18T04:41:20.274Z,1.20
2022-09-18T04:43:48.356Z,2.30
2022-09-18T04:46:16.489Z,1.80
2022-09-18T04:48:48.104Z,1.60
2022-09-18T04:51:16.623Z,2.33
2022-09-18T04:53:48.859Z,1.40
2022-09-18T04:56:16.974Z,1.65
2022-09-18T04:58:47.849Z,1.83
2022-09-18T05:01:15.062Z,1.75
2022-09-18T05:03:42.791Z,1.75
2022-09-18T05:06:16.168Z,1.75
2022-09-18T05:08:43.045Z,1.60
2022-09-18T05:11:10.254Z,2.00
2022-09-18T05:13:40.174Z,2.05
2022-09-18T05:16:13.118Z,1.70
2022-09-18T05:18:42.172Z,2.10
2022-09-18T05:21:10.171Z,2.45
2022-09-18T05:23:37.690Z,1.85
2022-09-18T05:26:04.776Z,2.63
2022-09-18T05:28:32.281Z,1.98
2022-09-18T05:31:01.201Z,1.63
2022-09-18T05:33:36.571Z,1.58
2022-09-18T05:36:05.694Z,1.60
2022-09-18T05:38:34.209Z,1.88
2022-09-18T05:41:03.530Z,1.60
2022-09-18T05:43:31.090Z,1.80
2022-09-18T05:46:00.405Z,2.40
2022-09-18T05:48:38.804Z,2.25
2022-09-18T05:51:07.224Z,2.50
2022-09-18T05:53:34.315Z,1.80
2022-09-18T05:56:10.859Z,1.75
2022-09-18T05:58:38.033Z,2.40
2022-09-18T06:01:05.321Z,2.28
2022-09-18T06:03:52.773Z,1.98
2022-09-18T06:06:22.019Z,2.30
2022-09-18T06:08:49.483Z,2.58
2022-09-18T06:11:16.475Z,1.80
2022-09-18T06:13:44.447Z,1.98
2022-09-18T06:16:13.158Z,1.67
2022-09-18T06:18:52.425Z,2.42
2022-09-18T06:21:21.234Z,2.00
2022-09-18T06:23:48.268Z,2.15
2022-09-18T06:26:24.668Z,1.90
2022-09-18T06:28:51.746Z,1.98
2022-09-18T06:31:19.285Z,1.85
2022-09-18T06:34:04.234Z,1.85
2022-09-18T06:36:31.281Z,1.90
2022-09-18T06:39:17.698Z,1.92
2022-09-18T06:41:47.307Z,2.17
2022-09-18T06:44:21.546Z,2.25
2022-09-18T06:47:09.090Z,2.08
2022-09-18T06:49:41.935Z,2.15
2022-09-18T06:52:10.149Z,2.38
2022-09-18T06:54:38.499Z,1.75
2022-09-18T06:57:07.664Z,2.15
2022-09-18T06:59:34.571Z,1.83
2022-09-18T07:02:01.816Z,1.83
2022-09-18T07:04:46.996Z,2.03
2022-09-18T07:07:16.656Z,2.05
2022-09-18T07:09:46.827Z,1.95
2022-09-18T07:12:34.710Z,2.30
2022-09-18T07:15:04.274Z,1.95
2022-09-18T07:17:31.594Z,2.15
2022-09-18T07:19:59.306Z,1.83
2022-09-18T07:22:36.708Z,1.88
2022-09-18T07:25:05.355Z,2.00
2022-09-18T07:27:32.760Z,1.63
2022-09-18T07:30:00.047Z,1.90
2022-09-18T07:32:27.742Z,1.85
2022-09-18T07:34:57.507Z,1.45
2022-09-18T07:37:29.712Z,1.48
2022-09-18T07:40:14.014Z,1.52
2022-09-18T07:43:08.480Z,1.65
2022-09-18T07:45:38.857Z,2.35
2022-09-18T07:48:07.873Z,2.08
2022-09-18T07:50:41.229Z,1.77
2022-09-18T07:53:10.055Z,1.90
2022-09-18T07:55:43.055Z,1.65
2022-09-18T07:58:10.384Z,1.90
2022-09-18T08:01:04.775Z,1.33
2022-09-18T08:03:35.904Z,1.40
2022-09-18T08:06:26.356Z,1.58
2022-09-18T08:09:07.077Z,1.90
2022-09-18T08:11:54.379Z,1.52
2022-09-18T08:14:29.102Z,1.42
2022-09-18T08:17:21.246Z,1.60
2022-09-18T08:20:07.039Z,1.75
2022-09-18T08:22:45.051Z,1.50
2022-09-18T08:25:14.247Z,1.60
2022-09-18T08:27:45.442Z,1.80
2022-09-18T08:30:15.851Z,1.60
2022-09-18T08:32:44.592Z,2.07
2022-09-18T08:35:12.710Z,1.73
2022-09-18T08:37:48.923Z,1.50
2022-09-18T08:40:54.383Z,1.70
2022-09-18T08:43:45.147Z,1.70
2022-09-18T08:46:26.392Z,1.90
2022-09-18T08:49:02.285Z,1.90
2022-09-18T08:51:34.600Z,1.40
2022-09-18T08:54:20.503Z,1.50
2022-09-18T08:57:25.986Z,1.70
2022-09-18T09:00:20.654Z,1.38
2022-09-18T09:03:48.877Z,1.65
2022-09-18T09:06:49.123Z,1.90
2022-09-18T09:09:51.359Z,1.60
2022-09-18T09:12:46.695Z,1.40
2022-09-18T09:15:42.169Z,1.25
2022-09-18T09:18:32.029Z,1.50
2022-09-18T09:21:25.532Z,1.70
2022-09-18T09:24:27.865Z,1.80
2022-09-18T09:27:28.997Z,1.50
2022-09-18T09:30:19.222Z,1.42
2022-09-18T09:33:21.376Z,1.30
2022-09-18T09:36:12.319Z,1.58
2022-09-18T09:39:18.173Z,1.67
2022-09-18T09:42:26.238Z,1.60
2022-09-18T09:51:04.817Z,1.27
2022-09-18T09:53:32.339Z,1.50
2022-09-18T09:56:09.053Z,1.50
2022-09-18T09:58:44.450Z,1.25
2022-09-18T10:01:25.078Z,1.63
2022-09-18T10:04:29.852Z,1.20
2022-09-18T10:07:09.286Z,1.48
2022-09-18T10:09:59.290Z,1.60
2022-09-18T10:12:36.816Z,1.25
2022-09-18T10:15:28.189Z,1.52
2022-09-18T10:17:59.993Z,1.95
2022-09-18T10:20:29.426Z,1.70
2022-09-18T10:23:33.805Z,1.52
2022-09-18T10:26:03.256Z,1.27
2022-09-18T10:28:31.635Z,1.30
2022-09-18T10:31:10.557Z,1.30
2022-09-18T10:33:53.140Z,1.52
2022-09-18T10:36:38.377Z,1.63
2022-09-18T10:39:47.948Z,1.55
2022-09-18T10:42:18.433Z,1.33
2022-09-18T10:44:57.847Z,1.20
2022-09-18T10:47:31.923Z,1.40
2022-09-18T10:50:06.496Z,1.10
2022-09-18T10:52:43.668Z,1.10
2022-09-18T10:55:22.784Z,1.50
2022-09-18T10:57:57.311Z,1.00
2022-09-18T11:00:25.507Z,1.42
2022-09-18T11:03:21.743Z,1.10
2022-09-18T11:05:52.891Z,1.25
2022-09-18T11:08:24.396Z,1.40
2022-09-18T11:10:59.643Z,1.20
2022-09-18T11:13:29.359Z,1.30
2022-09-18T11:16:02.830Z,1.10
2022-09-18T11:18:32.281Z,0.85
2022-09-18T11:21:04.224Z,1.27
2022-09-18T11:23:34.467Z,0.88
2022-09-18T11:26:19.749Z,1.20
2022-09-18T11:29:03.725Z,1.25
2022-09-18T11:31:42.097Z,1.23
2022-09-18T11:34:23.974Z,1.25
2022-09-18T11:36:54.716Z,1.02
2022-09-18T11:39:29.058Z,1.30
2022-09-18T11:41:56.826Z,1.23
2022-09-18T11:44:31.526Z,1.30
2022-09-18T11:47:44.208Z,0.85
2022-09-18T11:50:17.715Z,1.60
2022-09-18T11:52:54.547Z,1.50
2022-09-18T11:55:35.033Z,1.08
2022-09-18T11:58:28.278Z,0.95
2022-09-18T12:01:47.652Z,1.05
2022-09-18T12:04:37.005Z,1.10
2022-09-18T12:07:37.514Z,1.10
2022-09-18T12:10:17.953Z,1.23
2022-09-18T12:16:28.553Z,1.52
2022-09-18T12:19:04.104Z,1.33
2022-09-18T12:22:09.410Z,1.05
2022-09-18T12:24:36.301Z,1.00
2022-09-18T12:27:14.979Z,1.15
2022-09-18T12:29:50.827Z,1.10
2022-09-18T12:32:46.388Z,1.30
2022-09-18T12:35:42.910Z,1.30
2022-09-18T12:38:47.480Z,1.55
2022-09-18T12:41:26.124Z,1.73
2022-09-18T12:44:24.463Z,1.50
2022-09-18T12:47:00.412Z,1.17
2022-09-18T12:49:47.975Z,1.20
2022-09-18T12:52:33.321Z,1.02
2022-09-18T12:55:48.012Z,1.25
2022-09-18T12:58:32.732Z,1.00
2022-09-18T13:01:09.284Z,1.00
2022-09-18T13:03:38.788Z,0.93
2022-09-18T13:06:13.500Z,0.90
2022-09-18T13:08:52.511Z,1.02
2022-09-18T13:11:40.614Z,0.63
2022-09-18T13:14:16.856Z,0.98
2022-09-18T13:16:57.945Z,0.70
2022-09-18T13:19:35.245Z,1.25
2022-09-18T13:22:12.961Z,1.00
2022-09-18T13:24:41.640Z,0.75
2022-09-18T13:27:15.977Z,0.90
2022-09-18T13:29:49.628Z,1.13
2022-09-18T13:32:24.323Z,0.63
2022-09-18T13:34:55.192Z,0.65
2022-09-18T13:37:25.015Z,0.55
2022-09-18T13:40:10.613Z,0.73
2022-09-18T13:42:41.828Z,0.50
2022-09-18T13:45:22.357Z,0.43
2022-09-18T13:48:16.245Z,0.70
2022-09-18T13:50:58.146Z,0.73
2022-09-18T13:53:44.046Z,0.57
2022-09-18T13:56:16.424Z,0.55
2022-09-18T13:58:54.577Z,0.70
2022-09-18T14:01:41.774Z,0.90
2022-09-18T14:04:39.938Z,0.80
2022-09-18T14:07:33.158Z,0.60
2022-09-18T14:10:04.548Z,0.50
2022-09-18T14:12:35.148Z,0.60
2022-09-18T14:15:19.429Z,0.40
2022-09-18T14:18:05.506Z,0.50
2022-09-18T14:20:33.965Z,0.80
2022-09-18T14:23:42.579Z,0.50
2022-09-18T14:26:33.908Z,0.70
2022-09-18T14:29:14.876Z,0.50
2022-09-18T14:31:44.693Z,0.60
2022-09-18T14:34:38.193Z,0.80
2022-09-18T14:37:25.784Z,0.40
2022-09-18T14:42:39.244Z,0.40
2022-09-18T14:45:12.964Z,0.40
2022-09-18T14:47:45.508Z,0.45
2022-09-18T14:50:26.753Z,0.60
2022-09-18T14:52:54.832Z,0.70
2022-09-18T14:55:27.954Z,0.30
2022-09-18T14:57:59.862Z,0.52
2022-09-18T15:00:30.844Z,0.70
2022-09-18T15:03:02.343Z,0.50
2022-09-18T15:05:30.268Z,0.60
2022-09-18T15:08:07.142Z,0.50
2022-09-18T15:10:38.726Z,0.60
2022-09-18T15:13:08.529Z,0.52
2022-09-18T15:15:40.071Z,0.68
2022-09-18T15:18:20.984Z,0.50
2022-09-18T15:20:52.747Z,0.38
2022-09-18T15:23:38.407Z,0.60
2022-09-18T15:26:09.706Z,0.85
2022-09-18T15:28:38.431Z,0.73
2022-09-18T15:31:09.010Z,2.38
2022-09-18T15:33:39.091Z,0.30
2022-09-18T15:36:06.668Z,0.45
2022-09-18T15:38:46.094Z,0.40
2022-09-18T15:41:33.777Z,0.32
2022-09-18T15:44:00.736Z,0.38
2022-09-18T15:46:33.537Z,0.30
2022-09-18T15:49:03.338Z,0.40
2022-09-18T15:51:35.826Z,0.65
2022-09-18T15:54:09.266Z,0.50
2022-09-18T15:56:39.680Z,2.05
2022-09-18T15:59:30.322Z,0.40
2022-09-18T16:01:58.189Z,1.30
2022-09-18T16:04:28.574Z,1.08
2022-09-18T16:07:21.582Z,1.42
2022-09-18T16:09:49.567Z,1.63
2022-09-18T16:12:31.079Z,0.90
2022-09-18T16:15:02.599Z,1.33
2022-09-18T16:17:31.942Z,1.23
2022-09-18T16:20:23.175Z,0.95
2022-09-18T16:22:52.433Z,1.10
2022-09-18T16:25:23.760Z,1.00
2022-09-18T16:27:54.351Z,1.10
2022-09-18T16:30:21.346Z,0.93
2022-09-18T16:32:48.451Z,0.90
2022-09-18T16:35:16.338Z,1.15
2022-09-18T16:37:44.112Z,0.88
2022-09-18T16:40:27.462Z,1.30
2022-09-18T16:42:58.821Z,1.35
2022-09-18T16:45:29.434Z,0.82
2022-09-18T16:48:00.449Z,1.35
2022-09-18T16:50:28.073Z,1.50
2022-09-18T16:52:58.493Z,1.10
2022-09-18T16:55:29.009Z,1.33
2022-09-18T16:57:57.387Z,1.20
2022-09-18T17:00:24.491Z,1.60
2022-09-18T17:02:52.467Z,1.70
2022-09-18T17:05:19.329Z,1.58
2022-09-18T17:07:46.265Z,3.47
2022-09-18T17:10:14.013Z,1.50
2022-09-18T17:12:41.896Z,1.20
2022-09-18T17:15:09.484Z,1.65
2022-09-18T17:17:37.003Z,1.80
2022-09-18T17:20:05.653Z,1.20
2022-09-18T17:22:33.196Z,1.50
2022-09-18T17:25:00.613Z,2.72
2022-09-18T17:27:27.759Z,1.02
2022-09-18T17:29:54.950Z,1.20
2022-09-18T17:32:22.009Z,0.90
2022-09-18T17:34:48.825Z,1.05
2022-09-18T17:37:15.847Z,1.17
2022-09-18T17:39:42.973Z,1.65
2022-09-18T17:42:09.981Z,1.20
2022-09-18T17:44:37.179Z,1.10
2022-09-18T17:47:04.691Z,1.00
2022-09-18T17:49:32.625Z,0.80
2022-09-18T17:51:59.872Z,1.10
2022-09-18T17:54:27.812Z,1.48
2022-09-18T17:56:55.743Z,1.38
2022-09-18T17:59:23.002Z,1.10
2022-09-18T18:01:50.610Z,1.40
2022-09-18T18:04:18.103Z,1.45
2022-09-18T18:06:48.816Z,1.27
2022-09-18T18:09:16.268Z,1.40
2022-09-18T18:11:44.647Z,1.10
2022-09-18T18:14:12.309Z,1.35
2022-09-18T18:16:41.274Z,1.33
2022-09-18T18:19:12.418Z,2.00
2022-09-18T18:21:41.589Z,1.50
2022-09-18T18:24:14.974Z,1.50
2022-09-18T18:26:43.062Z,1.70
2022-09-18T18:29:12.415Z,1.77
2022-09-18T18:31:41.993Z,1.73
2022-09-18T18:34:10.932Z,1.40
2022-09-18T18:36:39.778Z,1.95
2022-09-18T18:39:12.200Z,1.30
2022-09-18T18:41:39.934Z,0.80
2022-09-18T18:44:07.731Z,0.60
2022-09-18T18:46:36.759Z,0.63
2022-09-18T18:49:09.837Z,0.60
2022-09-18T18:51:43.737Z,0.80
2022-09-18T18:54:11.660Z,0.50
2022-09-18T18:56:39.424Z,0.75
2022-09-18T18:59:11.903Z,2.00
2022-09-18T19:01:39.514Z,3.55
2022-09-18T19:04:21.471Z,1.42
2022-09-18T19:06:51.702Z,0.90
2022-09-18T19:09:24.563Z,1.80
2022-09-18T19:11:52.968Z,1.30
2022-09-18T19:14:26.048Z,1.77
2022-09-18T19:16:54.350Z,2.80
2022-09-18T19:19:23.660Z,1.20
2022-09-18T19:21:51.909Z,2.20
2022-09-18T19:24:18.992Z,2.63
2022-09-18T19:26:47.466Z,2.92
2022-09-18T19:29:17.543Z,4.95
2022-09-18T19:31:46.086Z,2.22
2022-09-18T19:34:18.611Z,1.85
2022-09-18T19:36:50.434Z,1.25
2022-09-18T19:39:19.476Z,1.60
2022-09-18T19:41:55.540Z,2.13
2022-09-18T19:44:33.973Z,1.58
2022-09-18T19:47:07.520Z,1.73
2022-09-18T19:49:38.695Z,2.03
2022-09-18T19:52:18.579Z,3.00
2022-09-18T19:54:46.975Z,1.98
2022-09-18T19:57:14.442Z,1.92
2022-09-18T19:59:41.733Z,2.13
2022-09-18T20:02:11.948Z,1.95
2022-09-18T20:04:40.985Z,2.80
2022-09-18T20:07:09.148Z,1.98
2022-09-18T20:09:36.716Z,2.28
2022-09-18T20:12:04.268Z,1.90
2022-09-18T20:14:31.414Z,2.22
2022-09-18T20:16:58.329Z,2.00
2022-09-18T20:19:26.084Z,2.05
2022-09-18T20:21:53.517Z,1.52
2022-09-18T20:24:20.567Z,1.50
2022-09-18T20:26:47.673Z,1.70
2022-09-18T20:29:16.113Z,1.50
2022-09-18T20:31:44.379Z,1.30
2022-09-18T20:34:11.416Z,1.40
2022-09-18T20:36:38.331Z,1.30
2022-09-18T20:39:05.915Z,1.60
2022-09-18T20:41:32.882Z,1.50
2022-09-18T20:44:01.216Z,1.40
2022-09-18T20:46:28.616Z,1.63
2022-09-18T20:48:55.775Z,1.40
2022-09-18T20:51:28.311Z,1.85
2022-09-18T20:53:57.574Z,1.52
2022-09-18T20:56:27.114Z,1.40
2022-09-18T20:58:54.751Z,1.63
2022-09-18T21:01:24.913Z,1.55
2022-09-18T21:03:58.649Z,1.50
2022-09-18T21:06:28.931Z,1.50
2022-09-18T21:08:56.522Z,1.98
2022-09-18T21:11:28.786Z,1.70
2022-09-18T21:13:58.271Z,1.73
2022-09-18T21:16:26.894Z,1.60
2022-09-18T21:19:00.192Z,2.50
2022-09-18T21:21:30.524Z,2.63
2022-09-18T21:24:02.204Z,2.45
2022-09-18T21:26:33.164Z,2.20
2022-09-18T21:29:23.500Z,2.55
2022-09-18T21:31:54.139Z,2.60
2022-09-18T21:34:33.449Z,2.55
2022-09-18T21:37:01.635Z,3.28
2022-09-18T21:39:30.048Z,3.08
2022-09-18T21:41:58.903Z,3.35
2022-09-18T21:44:27.808Z,2.80
2022-09-18T21:47:00.843Z,3.80
2022-09-18T21:49:29.331Z,3.33
2022-09-18T21:51:58.981Z,3.95
2022-09-18T21:54:27.003Z,4.05
2022-09-18T21:56:54.432Z,3.83
2022-09-18T21:59:23.398Z,4.30
2022-09-18T22:01:54.855Z,3.78
2022-09-18T22:04:29.879Z,3.85
2022-09-18T22:06:58.918Z,3.70
2022-09-18T22:09:28.983Z,3.35
2022-09-18T22:11:56.851Z,4.10
2022-09-18T22:14:31.300Z,4.53
2022-09-18T22:17:00.188Z,3.45
2022-09-18T22:19:27.923Z,3.30
2022-09-18T22:21:55.082Z,3.53
2022-09-18T22:24:24.519Z,3.75
2022-09-18T22:26:59.814Z,2.90
2022-09-18T22:29:31.820Z,2.90
2022-09-18T22:31:59.565Z,2.88
2022-09-18T22:34:28.693Z,3.33
2022-09-18T22:36:57.327Z,2.30
2022-09-18T22:39:24.934Z,2.58
2022-09-18T22:41:52.423Z,2.17
2022-09-18T22:44:22.972Z,2.55
2022-09-18T22:46:52.511Z,1.92
2022-09-18T22:49:21.525Z,2.28
2022-09-18T22:51:48.945Z,2.33
2022-09-18T22:54:17.045Z,2.20
2022-09-18T22:56:46.727Z,1.77
2022-09-18T22:59:15.734Z,2.00
2022-09-18T23:01:47.754Z,1.98
2022-09-18T23:04:18.038Z,2.10
2022-09-18T23:06:46.356Z,2.10
2022-09-18T23:09:14.125Z,2.25
2022-09-18T23:11:41.926Z,1.75
2022-09-18T23:14:17.035Z,1.90
2022-09-18T23:16:45.112Z,1.70
2022-09-18T23:19:16.033Z,1.80
2022-09-18T23:21:42.893Z,1.98
2022-09-18T23:24:10.682Z,1.90
2022-09-18T23:26:40.198Z,1.77
2022-09-18T23:29:10.391Z,1.85
2022-09-18T23:31:40.030Z,1.90
2022-09-18T23:34:11.375Z,1.73
2022-09-18T23:36:40.870Z,2.22
2022-09-18T23:39:29.635Z,1.80
2022-09-18T23:41:58.864Z,2.42
2022-09-18T23:44:28.677Z,2.13
2022-09-18T23:46:56.032Z,1.77
2022-09-18T23:49:23.761Z,1.80
2022-09-18T23:51:54.071Z,2.35
2022-09-18T23:54:26.387Z,1.90
2022-09-18T23:59:23.097Z,2.03
